Time;durP1;ratioP1;P1;durP2;ratioP2;P2;SDS_P1;SDS_P2;PMS_P1;PMS_P2;Temp;Humidity;BMP_temperature;BMP_pressure;BME280_temperature;BME280_humidity;BME280_pressure;Samples;Min_cycle;Max_cycle;Signal;HPM_P1;HPM_P2
2023/07/13 00:02:16;;;;;;;3.05;1.10;;;24.50;99.20;;;;;;10049742;28;20063;-71
2023/07/13 00:07:08;;;;;;;2.63;1.02;;;24.50;99.30;;;;;;10046774;28;20053;-68
2023/07/13 00:11:58;;;;;;;2.75;0.93;;;24.40;99.10;;;;;;10051581;28;20056;-70
2023/07/13 00:16:49;;;;;;;1.33;1.08;;;24.40;99.10;;;;;;10052479;28;20090;-68
2023/07/13 00:21:41;;;;;;;1.65;0.93;;;24.30;99.00;;;;;;10053805;28;20041;-69
2023/07/13 00:26:32;;;;;;;1.63;0.88;;;24.30;99.00;;;;;;10053647;28;20037;-68
2023/07/13 00:31:23;;;;;;;2.00;1.00;;;24.20;98.90;;;;;;10055911;28;20041;-68
2023/07/13 00:36:14;;;;;;;1.90;1.20;;;24.10;99.00;;;;;;10057063;28;20399;-69
2023/07/13 00:41:05;;;;;;;0.80;0.80;;;24.10;99.00;;;;;;10059374;28;20121;-69
2023/07/13 00:45:58;;;;;;;2.47;1.00;;;24.10;98.80;;;;;;10055004;28;20041;-68
2023/07/13 00:50:53;;;;;;;3.78;1.23;;;24.10;98.80;;;;;;10049631;28;20033;-70
2023/07/13 00:55:44;;;;;;;;;;;24.00;98.90;;;;;;10054054;28;20029;-69
2023/07/13 01:00:39;;;;;;;2.00;1.10;;;24.00;98.50;;;;;;10056044;28;19962;-68
2023/07/13 01:05:32;;;;;;;2.25;1.25;;;23.90;98.70;;;;;;10055723;28;20053;-68
2023/07/13 01:10:24;;;;;;;3.20;1.40;;;24.00;98.70;;;;;;10056176;28;20025;-71
2023/07/13 01:15:44;;;;;;;3.65;1.15;;;23.80;98.80;;;;;;10055391;28;20467;-72
2023/07/13 01:20:36;;;;;;;2.08;1.00;;;23.80;98.70;;;;;;10054309;28;20307;-73
2023/07/13 01:25:26;;;;;;;2.50;1.23;;;23.70;98.90;;;;;;10048236;28;20041;-75
2023/07/13 01:30:17;;;;;;;2.15;1.20;;;23.80;98.90;;;;;;10058038;28;20029;-73
2023/07/13 01:35:08;;;;;;;4.55;1.13;;;23.80;99.00;;;;;;10046980;28;20029;-69
2023/07/13 01:40:00;;;;;;;3.15;1.05;;;23.70;99.00;;;;;;10049964;28;20029;-68
2023/07/13 01:44:50;;;;;;;1.20;0.90;;;23.50;99.20;;;;;;10055930;28;20045;-71
2023/07/13 01:49:41;;;;;;;2.83;1.20;;;23.40;99.30;;;;;;10058436;28;20388;-70
2023/07/13 01:54:33;;;;;;;3.25;0.98;;;23.40;99.30;;;;;;10058577;28;20541;-68
2023/07/13 01:59:24;;;;;;;3.13;2.08;;;23.30;99.40;;;;;;10060166;28;20029;-69
2023/07/13 02:04:15;;;;;;;4.35;1.98;;;23.40;99.30;;;;;;10061642;28;20504;-68
2023/07/13 02:09:05;;;;;;;2.03;1.33;;;23.30;99.40;;;;;;10062156;28;20045;-69
2023/07/13 02:13:56;;;;;;;7.13;1.73;;;23.30;99.40;;;;;;10060209;28;20036;-68
2023/07/13 02:18:46;;;;;;;1.20;1.10;;;23.30;99.40;;;;;;10061358;28;20064;-72
2023/07/13 02:23:37;;;;;;;3.08;1.40;;;23.30;99.50;;;;;;10060616;28;20202;-66
2023/07/13 02:28:28;;;;;;;2.25;1.25;;;23.30;99.40;;;;;;10061503;28;20605;-67
2023/07/13 02:33:18;;;;;;;1.30;1.05;;;23.20;99.60;;;;;;10060749;28;20056;-70
2023/07/13 02:38:09;;;;;;;3.22;1.30;;;23.10;99.70;;;;;;10053982;28;20022;-74
2023/07/13 02:43:00;;;;;;;4.05;1.20;;;23.00;99.90;;;;;;10055394;28;20535;-72
2023/07/13 02:47:50;;;;;;;3.20;1.52;;;22.90;99.90;;;;;;10057509;28;20076;-71
2023/07/13 02:52:41;;;;;;;2.10;1.30;;;23.00;99.90;;;;;;10057297;28;20048;-67
2023/07/13 02:57:32;;;;;;;3.33;1.27;;;23.00;99.90;;;;;;10060671;28;20091;-73
2023/07/13 03:02:23;;;;;;;4.93;1.27;;;23.00;99.90;;;;;;10054081;28;20045;-73
2023/07/13 03:07:15;;;;;;;3.05;1.48;;;23.00;99.90;;;;;;10001210;28;20043;-72
2023/07/13 03:12:06;;;;;;;2.70;1.25;;;22.90;99.90;;;;;;10017805;28;20038;-72
2023/07/13 03:16:57;;;;;;;2.13;1.30;;;22.90;99.90;;;;;;10019411;28;20037;-69
2023/07/13 03:21:47;;;;;;;3.80;1.60;;;22.80;99.90;;;;;;10022507;28;20034;-68
2023/07/13 03:26:38;;;;;;;1.92;1.20;;;22.90;99.90;;;;;;10019209;28;20558;-68
2023/07/13 03:31:33;;;;;;;2.95;1.27;;;22.80;99.90;;;;;;10020597;28;20488;-69
2023/07/13 03:36:27;;;;;;;3.47;1.20;;;22.80;99.90;;;;;;10017898;28;20065;-71
2023/07/13 03:41:18;;;;;;;1.58;1.10;;;22.70;99.90;;;;;;10017882;28;20034;-71
2023/07/13 03:46:09;;;;;;;4.95;1.42;;;22.70;99.90;;;;;;10018273;28;20484;-70
2023/07/13 03:51:00;;;;;;;2.22;1.38;;;22.70;99.90;;;;;;10012567;28;20068;-74
2023/07/13 03:55:51;;;;;;;2.53;1.00;;;22.70;99.90;;;;;;10019000;28;20038;-74
2023/07/13 04:00:42;;;;;;;4.72;1.17;;;22.70;99.90;;;;;;10018243;28;20373;-75
2023/07/13 04:05:32;;;;;;;4.15;1.30;;;22.70;99.90;;;;;;10048360;28;20124;-75
2023/07/13 04:10:23;;;;;;;3.00;1.08;;;22.60;99.90;;;;;;10051770;28;20037;-74
2023/07/13 04:15:14;;;;;;;2.70;0.90;;;22.50;99.90;;;;;;10052996;28;20065;-74
2023/07/13 04:20:05;;;;;;;1.67;1.25;;;22.40;99.90;;;;;;10056723;28;20423;-74
2023/07/13 04:24:55;;;;;;;1.75;1.05;;;22.40;99.90;;;;;;10056841;28;20500;-74
2023/07/13 04:29:46;;;;;;;4.20;1.40;;;22.40;99.90;;;;;;10057399;28;20030;-74
2023/07/13 04:34:37;;;;;;;2.10;1.20;;;22.30;99.90;;;;;;10056516;28;20354;-70
2023/07/13 04:39:27;;;;;;;3.70;1.05;;;22.20;99.90;;;;;;10055560;28;20029;-74
2023/07/13 04:44:18;;;;;;;1.42;1.20;;;22.30;99.90;;;;;;10057349;28;20041;-74
2023/07/13 04:49:08;;;;;;;3.53;1.80;;;22.20;99.90;;;;;;10054763;28;20033;-72
2023/07/13 04:53:59;;;;;;;3.30;1.50;;;22.30;99.90;;;;;;10048942;28;20438;-72
2023/07/13 04:58:50;;;;;;;2.70;1.48;;;22.30;99.90;;;;;;10053225;28;20316;-69
2023/07/13 05:03:40;;;;;;;2.42;1.15;;;22.20;99.90;;;;;;10038683;28;20467;-74
2023/07/13 05:08:31;;;;;;;2.38;1.52;;;22.20;99.90;;;;;;10032040;28;20491;-70
2023/07/13 05:13:22;;;;;;;4.10;1.50;;;22.20;99.90;;;;;;10047543;28;20376;-70
2023/07/13 05:18:13;;;;;;;2.22;1.10;;;22.10;99.90;;;;;;10057759;28;20025;-74
2023/07/13 05:23:03;;;;;;;4.22;1.10;;;22.00;99.90;;;;;;10067523;28;20113;-74
2023/07/13 05:27:54;;;;;;;2.70;1.00;;;22.10;99.90;;;;;;10063592;28;20072;-73
2023/07/13 05:32:45;;;;;;;2.83;1.08;;;22.10;99.90;;;;;;10063003;28;20022;-71
2023/07/13 05:37:37;;;;;;;3.50;1.20;;;22.10;99.90;;;;;;10056210;28;20025;-73
2023/07/13 05:42:28;;;;;;;3.80;1.30;;;22.10;99.90;;;;;;10052954;28;20121;-73
2023/07/13 05:47:19;;;;;;;3.22;1.10;;;22.10;99.90;;;;;;10062547;28;20132;-74
2023/07/13 05:52:09;;;;;;;4.10;1.58;;;22.20;99.90;;;;;;10053201;28;20025;-74
2023/07/13 05:57:00;;;;;;;1.30;0.90;;;22.30;99.90;;;;;;10062866;28;20272;-69
2023/07/13 06:01:52;;;;;;;3.38;1.88;;;22.30;99.90;;;;;;10059429;28;20602;-67
2023/07/13 06:06:42;;;;;;;2.50;1.17;;;22.30;99.80;;;;;;10050155;28;20042;-68
2023/07/13 06:11:34;;;;;;;3.90;1.45;;;22.40;99.80;;;;;;10060624;28;20032;-70
2023/07/13 06:16:25;;;;;;;2.42;1.08;;;22.30;99.90;;;;;;10048818;28;20029;-68
2023/07/13 06:21:21;;;;;;;2.95;0.98;;;22.30;99.70;;;;;;10053674;28;20458;-71
2023/07/13 06:26:11;;;;;;;2.42;1.17;;;22.30;99.80;;;;;;10055436;28;20099;-68
2023/07/13 06:31:05;;;;;;;2.15;1.15;;;22.20;99.80;;;;;;10056104;28;20409;-68
2023/07/13 06:35:56;;;;;;;1.83;0.90;;;22.30;99.60;;;;;;10051826;28;20124;-70
2023/07/13 06:40:47;;;;;;;4.60;1.27;;;22.30;99.60;;;;;;10056082;28;20096;-70
2023/07/13 06:45:45;;;;;;;2.00;0.98;;;22.30;99.60;;;;;;10057526;28;20063;-73
2023/07/13 06:50:36;;;;;;;1.77;1.10;;;22.40;99.50;;;;;;10052596;28;20483;-71
2023/07/13 06:55:27;;;;;;;4.13;0.93;;;22.40;99.50;;;;;;10057702;28;20037;-69
2023/07/13 07:00:18;;;;;;;1.25;1.00;;;22.50;99.30;;;;;;10059489;28;20512;-72
2023/07/13 07:05:09;;;;;;;2.80;1.35;;;22.50;99.20;;;;;;10074059;28;20462;-73
2023/07/13 07:09:59;;;;;;;2.20;1.35;;;22.60;99.20;;;;;;10060171;28;20495;-68
2023/07/13 07:14:50;;;;;;;2.42;1.00;;;22.60;99.10;;;;;;10058404;28;20433;-68
2023/07/13 07:19:41;;;;;;;2.20;1.85;;;22.70;99.00;;;;;;10059707;28;20341;-70
2023/07/13 07:24:32;;;;;;;5.65;1.23;;;22.80;98.80;;;;;;10055365;28;20044;-69
2023/07/13 07:29:24;;;;;;;2.47;1.58;;;22.80;98.70;;;;;;10061905;28;20024;-69
2023/07/13 07:34:15;;;;;;;1.02;0.82;;;22.90;98.80;;;;;;10060352;28;20503;-68
2023/07/13 07:39:06;;;;;;;1.67;1.10;;;22.90;98.60;;;;;;10055104;28;20041;-71
2023/07/13 07:43:57;;;;;;;7.68;1.10;;;23.00;98.50;;;;;;10056951;28;20037;-68
2023/07/13 07:48:47;;;;;;;3.88;1.50;;;23.10;98.40;;;;;;10057674;28;20114;-71
2023/07/13 07:53:38;;;;;;;1.95;1.02;;;23.10;98.30;;;;;;10050206;28;20471;-68
2023/07/13 07:58:28;;;;;;;4.00;1.00;;;23.10;98.10;;;;;;10071504;28;20037;-68
2023/07/13 08:03:19;;;;;;;2.22;1.60;;;23.20;98.10;;;;;;10055359;28;20288;-71
2023/07/13 08:08:10;;;;;;;12.57;1.58;;;23.30;98.10;;;;;;10050280;28;20488;-67
2023/07/13 08:13:00;;;;;;;3.47;0.90;;;23.30;98.10;;;;;;10052150;28;20029;-70
2023/07/13 08:17:51;;;;;;;3.22;0.80;;;23.30;98.00;;;;;;10052469;28;20487;-68
2023/07/13 08:22:41;;;;;;;5.90;2.17;;;23.30;97.80;;;;;;10056018;28;20440;-69
2023/07/13 08:27:33;;;;;;;2.70;1.10;;;23.40;97.80;;;;;;10057188;28;20041;-69
2023/07/13 08:32:24;;;;;;;1.15;0.88;;;23.50;97.70;;;;;;10056737;28;20189;-75
2023/07/13 08:37:16;;;;;;;1.67;1.10;;;23.50;97.50;;;;;;10054822;28;20079;-73
2023/07/13 08:42:29;;;;;;;1.10;0.70;;;23.50;97.50;;;;;;10071173;28;20545;-69
2023/07/13 08:47:23;;;;;;;3.35;1.10;;;23.60;97.40;;;;;;10051092;28;20037;-71
2023/07/13 08:52:32;;;;;;;1.17;0.93;;;23.60;97.50;;;;;;10044584;28;20152;-68
2023/07/13 08:57:31;;;;;;;1.15;1.00;;;23.70;97.40;;;;;;10052521;28;20132;-71
2023/07/13 09:02:43;;;;;;;3.20;1.38;;;23.70;97.30;;;;;;10056076;28;21294;-73
2023/07/13 09:08:00;;;;;;;2.83;1.02;;;23.90;97.10;;;;;;10060158;28;20491;-71
2023/07/13 09:13:12;;;;;;;1.80;1.23;;;23.80;97.10;;;;;;10052675;28;20076;-67
2023/07/13 09:18:16;;;;;;;2.83;1.90;;;23.90;96.90;;;;;;10053523;28;20097;-70
2023/07/13 09:23:13;;;;;;;6.35;2.30;;;24.10;96.80;;;;;;10053906;28;20029;-76
2023/07/13 09:28:36;;;;;;;6.15;1.27;;;24.10;96.70;;;;;;10055601;28;20076;-69
2023/07/13 09:33:29;;;;;;;3.97;1.33;;;24.10;96.50;;;;;;10045949;28;20186;-74
2023/07/13 09:38:25;;;;;;;1.27;0.90;;;24.10;96.70;;;;;;10063632;28;20079;-73
2023/07/13 09:43:18;;;;;;;1.65;1.25;;;24.10;96.70;;;;;;10047417;28;20048;-74
2023/07/13 09:48:14;;;;;;;3.33;1.60;;;24.10;96.70;;;;;;10047223;28;20419;-75
2023/07/13 09:53:18;;;;;;;2.35;1.40;;;24.20;96.70;;;;;;10053342;28;20484;-72
2023/07/13 09:58:15;;;;;;;3.03;1.63;;;24.10;96.80;;;;;;10055173;28;20547;-75
2023/07/13 10:03:16;;;;;;;2.90;1.20;;;24.20;96.80;;;;;;10058302;28;20080;-71
2023/07/13 10:08:27;;;;;;;1.35;1.10;;;24.20;97.00;;;;;;10060511;28;20649;-74
2023/07/13 10:13:52;;;;;;;3.95;1.45;;;24.20;96.80;;;;;;10060030;28;20036;-75
2023/07/13 10:18:54;;;;;;;1.95;1.23;;;24.20;96.80;;;;;;10050381;28;20041;-74
2023/07/13 10:24:05;;;;;;;3.25;1.60;;;24.30;97.00;;;;;;10060814;28;20041;-68
2023/07/13 10:29:00;;;;;;;2.15;1.20;;;24.50;96.90;;;;;;10052713;28;20068;-72
2023/07/13 10:33:51;;;;;;;4.05;1.50;;;24.50;96.90;;;;;;10053921;28;20028;-72
2023/07/13 10:38:44;;;;;;;2.25;1.70;;;24.60;96.90;;;;;;10055459;28;20018;-73
2023/07/13 10:43:39;;;;;;;2.85;1.42;;;24.60;96.70;;;;;;10054665;28;20072;-73
2023/07/13 10:48:32;;;;;;;3.28;1.95;;;24.50;96.70;;;;;;10073094;28;20128;-75
2023/07/13 10:53:34;;;;;;;2.10;1.40;;;24.50;96.80;;;;;;10049570;28;20026;-74
2023/07/13 10:58:37;;;;;;;3.83;1.67;;;24.50;96.80;;;;;;10058759;28;20057;-71
2023/07/13 11:03:29;;;;;;;2.10;1.30;;;24.60;96.70;;;;;;10060679;28;20109;-72
2023/07/13 11:08:33;;;;;;;2.38;2.13;;;24.60;96.60;;;;;;10059983;28;20033;-74
2023/07/13 11:13:47;;;;;;;5.03;1.35;;;24.70;96.50;;;;;;10055869;28;20075;-70
2023/07/13 11:18:38;;;;;;;3.38;1.30;;;24.80;95.70;;;;;;10054889;28;20493;-76
2023/07/13 11:23:31;;;;;;;3.13;1.20;;;24.90;96.00;;;;;;10055179;28;20044;-75
2023/07/13 11:28:25;;;;;;;1.83;1.20;;;24.90;96.00;;;;;;10056520;28;20029;-74
2023/07/13 11:33:39;;;;;;;2.87;1.50;;;24.90;95.90;;;;;;10059237;28;20032;-75
2023/07/13 11:38:41;;;;;;;4.78;1.13;;;25.10;95.70;;;;;;10056379;28;20030;-73
2023/07/13 11:43:33;;;;;;;3.50;1.10;;;25.10;95.40;;;;;;10062757;28;20569;-75
2023/07/13 11:48:29;;;;;;;3.08;1.45;;;25.00;95.10;;;;;;10058203;28;20045;-75
2023/07/13 11:53:20;;;;;;;3.30;1.60;;;24.90;94.70;;;;;;10049941;28;20024;-72
2023/07/13 11:58:11;;;;;;;4.93;1.50;;;25.00;94.70;;;;;;10058157;28;20033;-69
2023/07/13 12:03:05;;;;;;;2.10;1.30;;;24.90;94.40;;;;;;10058121;28;20045;-75
2023/07/13 12:07:55;;;;;;;3.08;1.30;;;25.00;94.10;;;;;;10055701;28;20037;-72
2023/07/13 12:13:00;;;;;;;2.40;1.10;;;24.90;93.90;;;;;;10051379;28;20395;-73
2023/07/13 12:17:51;;;;;;;1.38;1.02;;;25.10;93.60;;;;;;10054340;28;20025;-74
2023/07/13 12:22:47;;;;;;;3.58;1.50;;;25.30;93.60;;;;;;10056485;28;20167;-73
2023/07/13 12:27:38;;;;;;;1.95;0.90;;;25.60;93.30;;;;;;10060345;28;20037;-75
2023/07/13 12:32:30;;;;;;;2.05;1.00;;;25.70;93.20;;;;;;10057700;28;20030;-75
2023/07/13 12:37:21;;;;;;;3.65;1.20;;;25.90;92.80;;;;;;10057164;28;20025;-76
2023/07/13 12:42:26;;;;;;;1.63;1.00;;;26.00;92.50;;;;;;10056334;28;20080;-76
2023/07/13 12:47:17;;;;;;;;;;;26.10;92.00;;;;;;10057358;28;20037;-68
2023/07/13 12:52:20;;;;;;;1.88;1.08;;;26.20;91.50;;;;;;10046113;28;19911;-71
2023/07/13 12:57:16;;;;;;;2.78;1.33;;;26.20;91.90;;;;;;10042480;28;20121;-74
2023/07/13 13:02:34;;;;;;;2.67;1.20;;;26.20;91.70;;;;;;10056414;28;20523;-74
2023/07/13 13:07:26;;;;;;;1.20;1.00;;;26.20;91.50;;;;;;10062057;28;20041;-71
2023/07/13 13:12:17;;;;;;;2.55;1.05;;;26.40;91.40;;;;;;10050761;28;20111;-70
2023/07/13 13:17:30;;;;;;;2.70;1.17;;;26.50;91.30;;;;;;10053875;28;20030;-75
2023/07/13 13:22:21;;;;;;;2.72;1.38;;;26.50;91.20;;;;;;10054662;28;20025;-76
2023/07/13 13:27:19;;;;;;;1.60;0.93;;;26.40;91.00;;;;;;10055757;28;20046;-76
2023/07/13 13:32:12;;;;;;;3.03;1.20;;;26.50;90.70;;;;;;10055663;28;20033;-69
2023/07/13 13:37:05;;;;;;;3.28;0.95;;;26.50;90.30;;;;;;10053036;28;20848;-69
2023/07/13 13:41:55;;;;;;;3.03;0.98;;;26.70;90.10;;;;;;10053812;28;20082;-73
2023/07/13 13:46:49;;;;;;;1.48;1.00;;;26.80;89.60;;;;;;10054907;28;20086;-72
2023/07/13 13:51:40;;;;;;;1.40;0.90;;;26.80;89.00;;;;;;10055323;28;20030;-69
2023/07/13 13:56:30;;;;;;;1.52;0.90;;;26.80;88.50;;;;;;10061549;28;20049;-70
2023/07/13 14:01:22;;;;;;;2.63;1.00;;;26.60;88.10;;;;;;10062079;28;20511;-68
2023/07/13 14:06:17;;;;;;;4.03;1.23;;;26.60;87.40;;;;;;10058798;28;20523;-71
2023/07/13 14:11:13;;;;;;;2.50;1.15;;;26.80;86.80;;;;;;10062567;28;20029;-73
2023/07/13 14:16:17;;;;;;;2.90;1.25;;;26.80;86.70;;;;;;10056421;28;20037;-71
2023/07/13 14:21:16;;;;;;;4.53;1.10;;;26.70;86.10;;;;;;10060408;28;20030;-69
2023/07/13 14:26:16;;;;;;;3.13;1.05;;;26.70;85.70;;;;;;10059457;28;20113;-68
2023/07/13 14:31:06;;;;;;;2.28;1.17;;;26.60;85.40;;;;;;10066533;28;20067;-69
2023/07/13 14:35:57;;;;;;;3.00;1.02;;;26.70;85.50;;;;;;10058861;28;20040;-68
2023/07/13 14:40:47;;;;;;;2.17;1.20;;;26.80;85.30;;;;;;10055408;28;20014;-69
2023/07/13 14:45:42;;;;;;;1.65;1.00;;;26.80;85.10;;;;;;10054318;28;20045;-70
2023/07/13 14:50:35;;;;;;;;;;;26.70;84.90;;;;;;10051428;28;20492;-69
2023/07/13 14:55:26;;;;;;;2.88;1.17;;;26.70;84.30;;;;;;10058239;28;19916;-71
2023/07/13 15:00:20;;;;;;;2.55;1.23;;;26.70;84.90;;;;;;10059765;28;20380;-70
2023/07/13 15:05:20;;;;;;;2.60;1.23;;;26.80;84.80;;;;;;10059584;28;20057;-71
2023/07/13 15:10:20;;;;;;;4.03;1.40;;;27.00;84.50;;;;;;10060120;28;20029;-74
2023/07/13 15:15:11;;;;;;;2.88;1.30;;;27.40;83.80;;;;;;10054950;28;20029;-69
2023/07/13 15:20:18;;;;;;;3.50;1.50;;;27.30;83.60;;;;;;10057179;28;20563;-68
2023/07/13 15:25:17;;;;;;;1.77;1.25;;;27.40;82.80;;;;;;10059137;28;20550;-72
2023/07/13 15:30:09;;;;;;;2.63;1.10;;;27.60;82.50;;;;;;10059098;28;20025;-68
2023/07/13 15:34:59;;;;;;;3.55;1.17;;;27.90;82.20;;;;;;10059166;28;20460;-72
2023/07/13 15:39:50;;;;;;;3.42;1.23;;;28.30;81.10;;;;;;10056352;28;20032;-74
2023/07/13 15:44:41;;;;;;;1.70;1.05;;;28.50;81.00;;;;;;10051924;28;20161;-73
2023/07/13 15:49:32;;;;;;;2.28;1.00;;;29.30;79.90;;;;;;10058143;28;20056;-74
2023/07/13 15:54:24;;;;;;;3.20;1.08;;;29.80;79.10;;;;;;10057852;28;20474;-72
2023/07/13 15:59:15;;;;;;;1.63;0.90;;;30.00;78.80;;;;;;10060559;28;20503;-74
2023/07/13 16:04:08;;;;;;;3.60;1.00;;;29.70;78.20;;;;;;10058062;28;20048;-73
2023/07/13 16:08:59;;;;;;;5.60;1.63;;;30.10;78.00;;;;;;10040586;28;20090;-74
2023/07/13 16:13:57;;;;;;;2.08;1.23;;;30.30;77.40;;;;;;10057277;28;20395;-73
2023/07/13 16:18:48;;;;;;;2.53;1.08;;;29.50;77.30;;;;;;10057775;28;20018;-72
2023/07/13 16:23:39;;;;;;;2.75;0.82;;;29.50;77.50;;;;;;10054730;28;20041;-74
2023/07/13 16:28:30;;;;;;;1.92;0.90;;;29.80;76.80;;;;;;10055697;28;20037;-74
2023/07/13 16:33:21;;;;;;;2.75;1.08;;;30.10;76.50;;;;;;10057497;28;20171;-77
2023/07/13 16:38:18;;;;;;;3.35;1.05;;;30.10;76.30;;;;;;10063598;28;20443;-75
2023/07/13 16:43:13;;;;;;;6.10;1.95;;;30.50;75.80;;;;;;10056822;28;20495;-75
2023/07/13 16:48:12;;;;;;;1.65;0.85;;;30.60;75.80;;;;;;10055157;28;20515;-73
2023/07/13 16:53:08;;;;;;;2.83;1.00;;;30.50;75.20;;;;;;10049304;28;20037;-74
2023/07/13 16:58:02;;;;;;;3.65;1.20;;;30.60;75.20;;;;;;10057225;28;20446;-74
2023/07/13 17:03:07;;;;;;;3.05;1.00;;;30.60;74.70;;;;;;10055817;28;20033;-75
2023/07/13 17:07:59;;;;;;;3.47;1.48;;;30.50;73.70;;;;;;10057215;28;20544;-74
2023/07/13 17:12:55;;;;;;;2.65;0.90;;;30.40;73.90;;;;;;10056766;28;20025;-73
2023/07/13 17:17:49;;;;;;;4.28;1.48;;;30.40;73.70;;;;;;10061618;28;20324;-74
2023/07/13 17:22:39;;;;;;;1.73;1.08;;;30.40;73.70;;;;;;10059137;28;20463;-75
2023/07/13 17:27:32;;;;;;;3.10;1.33;;;30.40;73.50;;;;;;10063870;28;20125;-75
2023/07/13 17:32:23;;;;;;;3.92;2.05;;;30.20;73.10;;;;;;10051025;28;20029;-75
2023/07/13 17:37:15;;;;;;;2.10;1.08;;;30.20;72.80;;;;;;10052997;28;20045;-73
2023/07/13 17:42:06;;;;;;;4.15;1.05;;;30.20;72.20;;;;;;10063074;28;20029;-68
2023/07/13 17:46:57;;;;;;;2.22;1.35;;;30.10;72.30;;;;;;10061485;28;20049;-74
2023/07/13 17:51:49;;;;;;;2.05;1.15;;;29.80;72.10;;;;;;10059140;28;20445;-69
2023/07/13 17:56:40;;;;;;;4.25;1.20;;;29.70;72.10;;;;;;10055542;28;20030;-70
2023/07/13 18:01:32;;;;;;;2.83;1.30;;;29.40;72.10;;;;;;10059251;28;20460;-74
2023/07/13 18:06:29;;;;;;;2.85;1.20;;;29.40;71.50;;;;;;10054923;28;20073;-74
2023/07/13 18:11:20;;;;;;;3.63;1.42;;;29.20;71.30;;;;;;10058295;28;20361;-74
2023/07/13 18:16:31;;;;;;;2.42;1.35;;;29.00;71.50;;;;;;10057531;28;20064;-74
2023/07/13 18:21:22;;;;;;;1.25;0.98;;;28.90;71.30;;;;;;10061469;28;20032;-73
2023/07/13 18:26:16;;;;;;;2.97;1.27;;;28.70;71.50;;;;;;10061887;28;20148;-73
2023/07/13 18:31:13;;;;;;;2.38;1.27;;;28.70;71.50;;;;;;10052752;28;20018;-73
2023/07/13 18:36:05;;;;;;;3.42;1.30;;;28.70;71.10;;;;;;10055456;28;20427;-73
2023/07/13 18:40:56;;;;;;;2.33;1.10;;;28.50;71.20;;;;;;10056744;28;20037;-70
2023/07/13 18:45:55;;;;;;;1.95;1.17;;;28.40;71.40;;;;;;10059639;28;20129;-67
2023/07/13 18:50:46;;;;;;;2.05;1.10;;;28.50;71.00;;;;;;10042334;28;20025;-72
2023/07/13 18:55:39;;;;;;;5.22;1.42;;;28.30;71.00;;;;;;10059373;28;20558;-69
2023/07/13 19:00:30;;;;;;;3.20;1.25;;;28.30;71.10;;;;;;10060956;28;20022;-70
2023/07/13 19:05:30;;;;;;;7.30;2.90;;;28.20;71.20;;;;;;10048246;28;20131;-70
2023/07/13 19:10:23;;;;;;;5.50;1.58;;;28.10;71.10;;;;;;10057694;28;20438;-68
2023/07/13 19:15:19;;;;;;;2.63;1.42;;;28.20;71.10;;;;;;10060791;28;20029;-69
2023/07/13 19:20:16;;;;;;;3.75;1.50;;;28.20;71.00;;;;;;10051509;28;20014;-68
2023/07/13 19:25:13;;;;;;;2.58;1.30;;;28.20;71.10;;;;;;10059125;28;20545;-68
2023/07/13 19:30:05;;;;;;;4.72;1.80;;;28.10;71.30;;;;;;10060212;28;20107;-70
2023/07/13 19:34:56;;;;;;;4.72;1.63;;;28.00;71.40;;;;;;10051583;28;20038;-69
2023/07/13 19:39:51;;;;;;;2.63;1.60;;;28.00;71.70;;;;;;10058445;28;20017;-71
2023/07/13 19:44:41;;;;;;;2.97;1.73;;;27.90;71.70;;;;;;10060895;28;20049;-69
2023/07/13 19:49:32;;;;;;;2.50;1.27;;;27.90;71.90;;;;;;10052435;28;20029;-75
2023/07/13 19:54:24;;;;;;;1.42;0.98;;;27.80;71.90;;;;;;10046289;28;20491;-75
2023/07/13 19:59:23;;;;;;;3.25;1.60;;;27.70;72.10;;;;;;10053983;28;20495;-74
2023/07/13 20:04:13;;;;;;;4.65;2.25;;;27.70;72.20;;;;;;10056272;23;20057;-72
2023/07/13 20:09:19;;;;;;;3.65;2.30;;;27.60;72.30;;;;;;10054772;28;20029;-73
2023/07/13 20:14:24;;;;;;;4.72;1.80;;;27.70;72.30;;;;;;10040801;28;20065;-72
2023/07/13 20:19:19;;;;;;;1.83;1.00;;;27.70;72.40;;;;;;10045592;28;20045;-72
2023/07/13 20:24:18;;;;;;;4.45;1.45;;;27.50;72.50;;;;;;10049062;28;20395;-72
2023/07/13 20:29:09;;;;;;;2.30;1.35;;;27.60;72.50;;;;;;10057180;28;20104;-73
2023/07/13 20:34:03;;;;;;;3.13;1.63;;;27.50;72.60;;;;;;10053607;28;20037;-73
2023/07/13 20:38:54;;;;;;;3.38;1.67;;;27.50;72.70;;;;;;10044187;28;20341;-76
2023/07/13 20:43:46;;;;;;;3.55;1.80;;;27.50;72.80;;;;;;10036906;28;20039;-73
2023/07/13 20:48:47;;;;;;;3.25;1.25;;;27.50;73.00;;;;;;10056308;28;20037;-73
2023/07/13 20:53:38;;;;;;;4.38;1.40;;;27.30;73.10;;;;;;10047850;28;20426;-74
2023/07/13 20:58:28;;;;;;;4.93;1.52;;;27.30;73.30;;;;;;10051184;28;20088;-73
2023/07/13 21:03:27;;;;;;;2.65;1.65;;;27.20;73.40;;;;;;10049220;28;20535;-73
2023/07/13 21:08:20;;;;;;;4.28;1.52;;;27.20;73.50;;;;;;10039290;28;20402;-73
2023/07/13 21:13:12;;;;;;;5.40;1.98;;;27.20;73.50;;;;;;10046346;28;20022;-73
2023/07/13 21:18:03;;;;;;;5.00;2.00;;;27.20;73.70;;;;;;10032508;28;20487;-73
2023/07/13 21:22:54;;;;;;;4.97;1.77;;;27.10;73.90;;;;;;10050224;28;20132;-73
2023/07/13 21:27:45;;;;;;;5.68;1.95;;;27.10;74.00;;;;;;10037151;28;20041;-73
2023/07/13 21:32:35;;;;;;;6.32;1.73;;;27.10;74.10;;;;;;10038372;28;20085;-73
2023/07/13 21:37:31;;;;;;;5.93;1.73;;;27.00;74.20;;;;;;10059186;28;20388;-73
2023/07/13 21:42:21;;;;;;;3.38;2.13;;;26.90;74.20;;;;;;10037151;28;20033;-73
2023/07/13 21:47:12;;;;;;;2.35;1.40;;;26.80;74.50;;;;;;10056654;28;20098;-73
2023/07/13 21:52:17;;;;;;;2.67;1.73;;;26.80;74.50;;;;;;10047653;28;20570;-73
2023/07/13 21:57:15;;;;;;;3.53;1.50;;;26.70;74.70;;;;;;10039463;28;20121;-76
2023/07/13 22:02:11;;;;;;;5.05;2.20;;;26.70;74.80;;;;;;10030625;28;20515;-73
2023/07/13 22:07:01;;;;;;;5.25;2.45;;;26.70;74.90;;;;;;10047587;28;20128;-73
2023/07/13 22:11:52;;;;;;;3.80;2.42;;;26.70;75.10;;;;;;10061222;28;20112;-73
2023/07/13 22:16:43;;;;;;;4.22;1.67;;;26.60;75.40;;;;;;10062314;28;20021;-74
2023/07/13 22:21:33;;;;;;;2.88;1.48;;;26.50;75.50;;;;;;10062850;28;20399;-73
2023/07/13 22:26:31;;;;;;;3.15;1.98;;;26.40;75.70;;;;;;10044438;28;20045;-72
2023/07/13 22:31:23;;;;;;;4.47;1.65;;;26.40;75.90;;;;;;10050009;28;20423;-73
2023/07/13 22:36:15;;;;;;;4.07;2.10;;;26.30;76.20;;;;;;10049001;28;20037;-74
2023/07/13 22:41:18;;;;;;;2.00;1.50;;;26.30;76.30;;;;;;10035487;28;20091;-74
2023/07/13 22:46:16;;;;;;;3.38;1.55;;;26.20;76.50;;;;;;10035010;28;20111;-73
2023/07/13 22:51:17;;;;;;;4.30;1.50;;;26.10;76.90;;;;;;10031180;28;20061;-72
2023/07/13 22:56:07;;;;;;;3.70;2.33;;;26.20;77.20;;;;;;10057915;28;20038;-73
2023/07/13 23:01:00;;;;;;;7.57;4.97;;;26.00;77.20;;;;;;10058296;28;20638;-75
2023/07/13 23:05:50;;;;;;;6.78;4.10;;;26.00;77.60;;;;;;10041795;28;20088;-75
2023/07/13 23:10:43;;;;;;;5.35;3.42;;;25.80;77.90;;;;;;10058917;28;20488;-74
2023/07/13 23:15:34;;;;;;;4.68;2.35;;;25.80;78.00;;;;;;10042356;28;20036;-73
2023/07/13 23:20:34;;;;;;;4.18;2.75;;;25.70;78.10;;;;;;10059086;28;20036;-73
2023/07/13 23:25:26;;;;;;;3.83;2.13;;;25.60;78.20;;;;;;10041514;28;20033;-73
2023/07/13 23:30:20;;;;;;;3.28;1.90;;;25.50;78.50;;;;;;10059910;28;20029;-75
2023/07/13 23:35:15;;;;;;;3.77;2.00;;;25.50;78.60;;;;;;10060217;28;20022;-76
2023/07/13 23:40:18;;;;;;;4.25;2.17;;;25.50;78.70;;;;;;10053618;28;20060;-73
2023/07/13 23:45:17;;;;;;;5.28;2.38;;;25.50;78.80;;;;;;10055954;28;20045;-75
2023/07/13 23:50:16;;;;;;;5.78;2.70;;;25.40;79.10;;;;;;10050426;28;20026;-73
2023/07/13 23:55:15;;;;;;;3.97;2.33;;;25.30;79.40;;;;;;10058426;28;20033;-74
